Terminal Aerodrome Forecast
Issued by NWS Grand Forks, ND

Home | Current Version | Previous Version | Text Only | Print | Product List | Glossary Off
Versions: 1 2 3 4 5 6 7 8 9 10 11 12 13 14 15 16 17

230
FTUS43 KFGF 262203 AAB
TAFFAR
TAF AMD
KFAR 262203Z 2622/2718 36017KT P6SM FEW006 OVC012
      TEMPO 2622/2624 1/2SM SN BKN006 OVC012
     FM270000 36012KT 3SM -SN OVC010
     FM270500 36008KT P6SM BKN015=

USA.gov is the U.S. government's official web portal to all federal, state and local government web resources and services.